sensor_id;sensor_type;location;lat;lon;timestamp;pressure;altitude;pressure_sealevel;temperature;humidity
51829;BME280;37881;48.024;8.774;2023-04-07T00:00:24;93862.59;;;4.94;100.00
51829;BME280;37881;48.024;8.774;2023-04-07T00:02:52;93859.88;;;4.94;100.00
51829;BME280;37881;48.024;8.774;2023-04-07T00:05:19;93858.75;;;4.98;100.00
51829;BME280;37881;48.024;8.774;2023-04-07T00:07:46;93856.00;;;4.95;100.00
51829;BME280;37881;48.024;8.774;2023-04-07T00:10:21;93861.81;;;4.90;100.00
51829;BME280;37881;48.024;8.774;2023-04-07T00:12:48;93857.00;;;4.65;100.00
51829;BME280;37881;48.024;8.774;2023-04-07T00:15:15;93847.22;;;4.53;100.00
51829;BME280;37881;48.024;8.774;2023-04-07T00:17:42;93847.66;;;4.63;100.00
51829;BME280;37881;48.024;8.774;2023-04-07T00:20:09;93846.84;;;4.55;100.00
51829;BME280;37881;48.024;8.774;2023-04-07T00:22:36;93845.25;;;4.50;100.00
51829;BME280;37881;48.024;8.774;2023-04-07T00:25:03;93837.09;;;4.50;100.00
51829;BME280;37881;48.024;8.774;2023-04-07T00:27:30;93840.66;;;4.58;100.00
51829;BME280;37881;48.024;8.774;2023-04-07T00:29:56;93831.38;;;4.66;100.00
51829;BME280;37881;48.024;8.774;2023-04-07T00:32:23;93825.50;;;4.60;100.00
51829;BME280;37881;48.024;8.774;2023-04-07T00:34:50;93827.44;;;4.53;100.00
51829;BME280;37881;48.024;8.774;2023-04-07T00:37:16;93824.69;;;4.49;100.00
51829;BME280;37881;48.024;8.774;2023-04-07T00:39:45;93820.44;;;4.52;100.00
51829;BME280;37881;48.024;8.774;2023-04-07T00:42:12;93808.06;;;4.62;100.00
51829;BME280;37881;48.024;8.774;2023-04-07T00:44:38;93806.03;;;4.48;100.00
51829;BME280;37881;48.024;8.774;2023-04-07T00:47:05;93805.00;;;4.70;100.00
51829;BME280;37881;48.024;8.774;2023-04-07T00:49:32;93796.47;;;4.72;100.00
51829;BME280;37881;48.024;8.774;2023-04-07T00:52:00;93793.69;;;4.57;100.00
51829;BME280;37881;48.024;8.774;2023-04-07T00:54:29;93789.75;;;4.51;100.00
51829;BME280;37881;48.024;8.774;2023-04-07T00:56:56;93790.19;;;4.57;100.00
51829;BME280;37881;48.024;8.774;2023-04-07T00:59:23;93791.72;;;4.51;100.00
51829;BME280;37881;48.024;8.774;2023-04-07T01:05:12;93799.16;;;4.68;100.00
51829;BME280;37881;48.024;8.774;2023-04-07T01:07:51;93791.38;;;4.63;100.00
51829;BME280;37881;48.024;8.774;2023-04-07T01:10:31;93792.19;;;4.67;100.00
51829;BME280;37881;48.024;8.774;2023-04-07T01:13:12;93781.31;;;4.67;100.00
51829;BME280;37881;48.024;8.774;2023-04-07T01:15:42;93781.28;;;4.64;100.00
51829;BME280;37881;48.024;8.774;2023-04-07T01:18:20;93780.94;;;4.72;100.00
51829;BME280;37881;48.024;8.774;2023-04-07T01:20:49;93783.97;;;4.60;100.00
51829;BME280;37881;48.024;8.774;2023-04-07T01:23:24;93780.84;;;4.54;100.00
51829;BME280;37881;48.024;8.774;2023-04-07T01:26:13;93775.06;;;4.63;100.00
51829;BME280;37881;48.024;8.774;2023-04-07T01:31:11;93769.25;;;4.61;100.00
51829;BME280;37881;48.024;8.774;2023-04-07T01:33:39;93769.63;;;4.59;100.00
51829;BME280;37881;48.024;8.774;2023-04-07T01:36:10;93772.34;;;4.63;100.00
51829;BME280;37881;48.024;8.774;2023-04-07T01:38:37;93762.25;;;4.64;100.00
51829;BME280;37881;48.024;8.774;2023-04-07T01:41:06;93764.22;;;4.63;100.00
51829;BME280;37881;48.024;8.774;2023-04-07T01:43:36;93764.59;;;4.65;100.00
51829;BME280;37881;48.024;8.774;2023-04-07T01:46:04;93760.28;;;4.60;100.00
51829;BME280;37881;48.024;8.774;2023-04-07T01:48:31;93755.28;;;4.66;100.00
51829;BME280;37881;48.024;8.774;2023-04-07T01:50:59;93755.28;;;4.66;100.00
51829;BME280;37881;48.024;8.774;2023-04-07T01:53:26;93752.19;;;4.68;100.00
51829;BME280;37881;48.024;8.774;2023-04-07T01:55:53;93753.34;;;4.70;100.00
51829;BME280;37881;48.024;8.774;2023-04-07T01:58:20;93747.81;;;4.52;100.00
51829;BME280;37881;48.024;8.774;2023-04-07T02:00:47;93748.22;;;4.47;100.00
51829;BME280;37881;48.024;8.774;2023-04-07T02:03:19;93751.97;;;4.28;100.00
51829;BME280;37881;48.024;8.774;2023-04-07T02:05:53;93750.34;;;4.16;100.00
51829;BME280;37881;48.024;8.774;2023-04-07T02:08:20;93748.44;;;4.24;100.00
51829;BME280;37881;48.024;8.774;2023-04-07T02:10:50;93747.75;;;4.38;100.00
51829;BME280;37881;48.024;8.774;2023-04-07T02:13:19;93735.75;;;4.46;100.00
51829;BME280;37881;48.024;8.774;2023-04-07T02:15:47;93733.84;;;4.47;100.00
51829;BME280;37881;48.024;8.774;2023-04-07T02:18:15;93731.53;;;4.52;100.00
51829;BME280;37881;48.024;8.774;2023-04-07T02:20:44;93729.19;;;4.54;100.00
51829;BME280;37881;48.024;8.774;2023-04-07T02:23:11;93728.06;;;4.55;100.00
51829;BME280;37881;48.024;8.774;2023-04-07T02:25:38;93724.56;;;4.58;100.00
51829;BME280;37881;48.024;8.774;2023-04-07T02:28:05;93719.16;;;4.62;100.00
51829;BME280;37881;48.024;8.774;2023-04-07T02:30:33;93716.06;;;4.64;100.00
51829;BME280;37881;48.024;8.774;2023-04-07T02:33:00;93709.81;;;4.56;100.00
51829;BME280;37881;48.024;8.774;2023-04-07T02:35:26;93715.19;;;4.45;100.00
51829;BME280;37881;48.024;8.774;2023-04-07T02:37:53;93717.09;;;4.37;100.00
51829;BME280;37881;48.024;8.774;2023-04-07T02:40:20;93715.13;;;4.34;100.00
51829;BME280;37881;48.024;8.774;2023-04-07T02:42:46;93711.66;;;4.34;100.00
51829;BME280;37881;48.024;8.774;2023-04-07T02:45:13;93710.47;;;4.31;100.00
51829;BME280;37881;48.024;8.774;2023-04-07T02:47:41;93705.88;;;4.39;100.00
51829;BME280;37881;48.024;8.774;2023-04-07T02:50:08;93708.56;;;4.43;100.00
51829;BME280;37881;48.024;8.774;2023-04-07T02:52:35;93706.25;;;4.45;100.00
51829;BME280;37881;48.024;8.774;2023-04-07T02:55:02;93705.88;;;4.46;100.00
51829;BME280;37881;48.024;8.774;2023-04-07T02:57:29;93699.28;;;4.44;100.00
51829;BME280;37881;48.024;8.774;2023-04-07T02:59:55;93693.88;;;4.47;100.00
51829;BME280;37881;48.024;8.774;2023-04-07T03:02:23;93706.75;;;3.91;100.00
51829;BME280;37881;48.024;8.774;2023-04-07T03:04:51;93697.06;;;3.94;100.00
51829;BME280;37881;48.024;8.774;2023-04-07T03:07:18;93692.09;;;4.10;100.00
51829;BME280;37881;48.024;8.774;2023-04-07T03:09:45;93693.38;;;4.27;100.00
51829;BME280;37881;48.024;8.774;2023-04-07T03:12:12;93691.06;;;4.36;100.00
51829;BME280;37881;48.024;8.774;2023-04-07T03:14:39;93687.97;;;4.31;100.00
51829;BME280;37881;48.024;8.774;2023-04-07T03:17:05;93685.25;;;4.31;100.00
51829;BME280;37881;48.024;8.774;2023-04-07T03:19:32;93680.94;;;4.23;100.00
51829;BME280;37881;48.024;8.774;2023-04-07T03:21:59;93681.13;;;3.85;100.00
51829;BME280;37881;48.024;8.774;2023-04-07T03:24:25;93672.59;;;3.90;100.00
51829;BME280;37881;48.024;8.774;2023-04-07T03:26:52;93667.22;;;3.97;100.00
51829;BME280;37881;48.024;8.774;2023-04-07T03:29:19;93674.63;;;4.04;100.00
51829;BME280;37881;48.024;8.774;2023-04-07T03:31:46;93672.72;;;4.12;100.00
51829;BME280;37881;48.024;8.774;2023-04-07T03:34:13;93672.34;;;4.10;100.00
51829;BME280;37881;48.024;8.774;2023-04-07T03:36:39;93665.72;;;4.04;100.00
51829;BME280;37881;48.024;8.774;2023-04-07T03:39:06;93678.53;;;4.10;100.00
51829;BME280;37881;48.024;8.774;2023-04-07T03:41:33;93671.22;;;4.18;100.00
51829;BME280;37881;48.024;8.774;2023-04-07T03:44:00;93668.44;;;4.07;100.00
51829;BME280;37881;48.024;8.774;2023-04-07T03:46:27;93676.88;;;3.91;100.00
51829;BME280;37881;48.024;8.774;2023-04-07T03:48:53;93669.94;;;3.97;100.00
51829;BME280;37881;48.024;8.774;2023-04-07T03:51:20;93664.47;;;3.90;100.00
51829;BME280;37881;48.024;8.774;2023-04-07T03:53:47;93657.16;;;4.02;100.00
51829;BME280;37881;48.024;8.774;2023-04-07T03:56:14;93664.84;;;3.85;100.00
51829;BME280;37881;48.024;8.774;2023-04-07T03:58:41;93660.16;;;3.78;100.00
51829;BME280;37881;48.024;8.774;2023-04-07T04:01:08;93652.81;;;3.90;100.00
51829;BME280;37881;48.024;8.774;2023-04-07T04:03:35;93654.19;;;3.62;100.00
51829;BME280;37881;48.024;8.774;2023-04-07T04:06:02;93651.19;;;3.71;100.00
51829;BME280;37881;48.024;8.774;2023-04-07T04:08:29;93648.16;;;3.87;100.00
51829;BME280;37881;48.024;8.774;2023-04-07T04:10:56;93654.81;;;3.96;100.00
51829;BME280;37881;48.024;8.774;2023-04-07T04:13:22;93643.97;;;4.04;100.00
51829;BME280;37881;48.024;8.774;2023-04-07T04:15:49;93638.19;;;4.05;100.00
51829;BME280;37881;48.024;8.774;2023-04-07T04:18:16;93642.09;;;4.11;100.00
51829;BME280;37881;48.024;8.774;2023-04-07T04:20:42;93637.78;;;4.10;100.00
51829;BME280;37881;48.024;8.774;2023-04-07T04:23:09;93649.47;;;4.11;100.00
51829;BME280;37881;48.024;8.774;2023-04-07T04:25:36;93642.09;;;4.11;100.00
51829;BME280;37881;48.024;8.774;2023-04-07T04:28:05;93649.47;;;4.11;100.00
51829;BME280;37881;48.024;8.774;2023-04-07T04:30:32;93650.94;;;3.97;100.00
51829;BME280;37881;48.024;8.774;2023-04-07T04:32:58;93646.28;;;3.39;100.00
51829;BME280;37881;48.024;8.774;2023-04-07T04:35:25;93635.63;;;3.12;100.00
51829;BME280;37881;48.024;8.774;2023-04-07T04:37:53;93636.63;;;2.93;100.00
51829;BME280;37881;48.024;8.774;2023-04-07T04:40:20;93634.09;;;3.15;100.00
51829;BME280;37881;48.024;8.774;2023-04-07T04:42:47;93639.59;;;3.26;100.00
51829;BME280;37881;48.024;8.774;2023-04-07T04:45:13;93633.00;;;3.23;100.00
51829;BME280;37881;48.024;8.774;2023-04-07T04:47:40;93625.31;;;3.29;100.00
51829;BME280;37881;48.024;8.774;2023-04-07T04:50:09;93629.09;;;3.17;100.00
51829;BME280;37881;48.024;8.774;2023-04-07T04:52:36;93631.31;;;3.04;100.00
51829;BME280;37881;48.024;8.774;2023-04-07T04:55:03;93633.22;;;3.00;100.00
51829;BME280;37881;48.024;8.774;2023-04-07T04:57:30;93634.22;;;2.85;100.00
51829;BME280;37881;48.024;8.774;2023-04-07T04:59:57;93640.72;;;2.76;100.00
51829;BME280;37881;48.024;8.774;2023-04-07T05:02:23;93634.72;;;2.94;100.00
51829;BME280;37881;48.024;8.774;2023-04-07T05:04:50;93640.72;;;2.76;100.00
51829;BME280;37881;48.024;8.774;2023-04-07T05:07:17;93638.56;;;2.93;100.00
51829;BME280;37881;48.024;8.774;2023-04-07T05:09:44;93627.09;;;3.10;100.00
51829;BME280;37881;48.024;8.774;2023-04-07T05:12:10;93620.97;;;3.20;100.00
51829;BME280;37881;48.024;8.774;2023-04-07T05:14:37;93620.22;;;3.24;100.00
51829;BME280;37881;48.024;8.774;2023-04-07T05:17:03;93615.94;;;3.19;100.00
51829;BME280;37881;48.024;8.774;2023-04-07T05:19:30;93626.03;;;3.26;100.00
51829;BME280;37881;48.024;8.774;2023-04-07T05:21:58;93620.59;;;3.22;100.00
51829;BME280;37881;48.024;8.774;2023-04-07T05:24:28;93624.25;;;3.44;100.00
51829;BME280;37881;48.024;8.774;2023-04-07T05:26:55;93628.97;;;3.54;100.00
51829;BME280;37881;48.024;8.774;2023-04-07T05:29:22;93627.03;;;3.55;100.00
51829;BME280;37881;48.024;8.774;2023-04-07T05:31:49;93635.28;;;3.73;100.00
51829;BME280;37881;48.024;8.774;2023-04-07T05:34:16;93651.72;;;3.98;100.00
51829;BME280;37881;48.024;8.774;2023-04-07T05:36:42;93649.22;;;3.71;100.00
51829;BME280;37881;48.024;8.774;2023-04-07T05:39:09;93656.81;;;2.96;100.00
51829;BME280;37881;48.024;8.774;2023-04-07T05:41:36;93647.97;;;3.54;100.00
51829;BME280;37881;48.024;8.774;2023-04-07T05:44:03;93646.72;;;3.45;100.00
51829;BME280;37881;48.024;8.774;2023-04-07T05:46:29;93636.06;;;3.73;100.00
51829;BME280;37881;48.024;8.774;2023-04-07T05:48:56;93636.66;;;4.11;100.00
51829;BME280;37881;48.024;8.774;2023-04-07T05:51:28;93629.41;;;4.48;100.00
51829;BME280;37881;48.024;8.774;2023-04-07T05:53:54;93626.75;;;4.62;100.00
51829;BME280;37881;48.024;8.774;2023-04-07T05:56:21;93630.97;;;4.52;100.00
51829;BME280;37881;48.024;8.774;2023-04-07T05:58:48;93623.25;;;4.65;100.00
51829;BME280;37881;48.024;8.774;2023-04-07T06:01:15;93624.06;;;4.91;100.00
51829;BME280;37881;48.024;8.774;2023-04-07T06:03:41;93629.53;;;4.98;100.00
51829;BME280;37881;48.024;8.774;2023-04-07T06:06:08;93634.19;;;4.94;100.00
51829;BME280;37881;48.024;8.774;2023-04-07T06:08:35;93632.63;;;5.00;100.00
51829;BME280;37881;48.024;8.774;2023-04-07T06:11:02;93633.03;;;4.91;100.00
51829;BME280;37881;48.024;8.774;2023-04-07T06:13:29;93634.59;;;5.10;100.00
51829;BME280;37881;48.024;8.774;2023-04-07T06:15:55;93635.75;;;5.31;100.00
51829;BME280;37881;48.024;8.774;2023-04-07T06:18:22;93636.50;;;4.85;100.00
51829;BME280;37881;48.024;8.774;2023-04-07T06:20:49;93630.91;;;4.34;100.00
51829;BME280;37881;48.024;8.774;2023-04-07T06:23:15;93629.53;;;5.09;100.00
51829;BME280;37881;48.024;8.774;2023-04-07T06:25:42;93625.25;;;5.04;100.00
51829;BME280;37881;48.024;8.774;2023-04-07T06:28:09;93621.00;;;5.35;100.00
51829;BME280;37881;48.024;8.774;2023-04-07T06:30:35;93624.09;;;5.70;100.00
51829;BME280;37881;48.024;8.774;2023-04-07T06:33:03;93628.72;;;5.87;100.00
51829;BME280;37881;48.024;8.774;2023-04-07T06:35:30;93632.22;;;5.95;100.00
51829;BME280;37881;48.024;8.774;2023-04-07T06:37:57;93623.28;;;5.98;100.00
51829;BME280;37881;48.024;8.774;2023-04-07T06:40:24;93616.72;;;5.38;100.00
51829;BME280;37881;48.024;8.774;2023-04-07T06:42:51;93620.22;;;5.42;100.00
51829;BME280;37881;48.024;8.774;2023-04-07T06:45:19;93622.16;;;5.45;100.00
51829;BME280;37881;48.024;8.774;2023-04-07T06:47:46;93626.41;;;5.82;100.00
51829;BME280;37881;48.024;8.774;2023-04-07T06:50:13;93627.75;;;6.48;100.00
51829;BME280;37881;48.024;8.774;2023-04-07T06:52:40;93629.56;;;6.79;100.00
51829;BME280;37881;48.024;8.774;2023-04-07T06:55:07;93633.91;;;7.33;100.00
51829;BME280;37881;48.024;8.774;2023-04-07T06:57:34;93630.97;;;7.02;100.00
51829;BME280;37881;48.024;8.774;2023-04-07T07:00:01;93631.97;;;6.70;100.00
51829;BME280;37881;48.024;8.774;2023-04-07T07:02:27;93632.69;;;6.78;100.00
51829;BME280;37881;48.024;8.774;2023-04-07T07:04:54;93624.84;;;6.84;100.00
51829;BME280;37881;48.024;8.774;2023-04-07T07:07:21;93628.19;;;7.16;100.00
51829;BME280;37881;48.024;8.774;2023-04-07T07:09:47;93626.75;;;7.46;100.00
51829;BME280;37881;48.024;8.774;2023-04-07T07:12:14;93615.53;;;7.82;100.00
51829;BME280;37881;48.024;8.774;2023-04-07T07:14:43;93612.75;;;7.89;100.00
51829;BME280;37881;48.024;8.774;2023-04-07T07:17:09;93615.31;;;8.04;100.00
51829;BME280;37881;48.024;8.774;2023-04-07T07:19:36;93610.09;;;8.16;100.00
51829;BME280;37881;48.024;8.774;2023-04-07T07:22:03;93614.66;;;8.27;100.00
51829;BME280;37881;48.024;8.774;2023-04-07T07:24:30;93619.06;;;8.55;100.00
51829;BME280;37881;48.024;8.774;2023-04-07T07:26:59;93615.00;;;8.67;100.00
51829;BME280;37881;48.024;8.774;2023-04-07T07:29:28;93619.78;;;9.17;100.00
51829;BME280;37881;48.024;8.774;2023-04-07T07:31:54;93615.19;;;9.61;94.77
51829;BME280;37881;48.024;8.774;2023-04-07T07:34:21;93616.28;;;10.34;89.89
51829;BME280;37881;48.024;8.774;2023-04-07T07:36:48;93621.72;;;10.94;85.03
51829;BME280;37881;48.024;8.774;2023-04-07T07:39:15;93618.59;;;11.12;78.79
51829;BME280;37881;48.024;8.774;2023-04-07T07:41:42;93625.94;;;11.52;73.64
51829;BME280;37881;48.024;8.774;2023-04-07T07:44:08;93618.50;;;13.02;67.62
51829;BME280;37881;48.024;8.774;2023-04-07T07:46:35;93617.31;;;13.29;61.09
51829;BME280;37881;48.024;8.774;2023-04-07T07:49:02;93622.59;;;13.10;62.16
51829;BME280;37881;48.024;8.774;2023-04-07T07:51:31;93611.28;;;13.47;63.06
51829;BME280;37881;48.024;8.774;2023-04-07T07:53:57;93613.78;;;14.27;54.05
51829;BME280;37881;48.024;8.774;2023-04-07T07:57:02;93609.75;;;16.75;49.32
51829;BME280;37881;48.024;8.774;2023-04-07T07:59:29;93610.47;;;19.39;41.14
51829;BME280;37881;48.024;8.774;2023-04-07T08:01:56;93600.06;;;21.85;37.62
51829;BME280;37881;48.024;8.774;2023-04-07T08:04:23;93604.66;;;22.80;33.19
51829;BME280;37881;48.024;8.774;2023-04-07T08:06:50;93604.75;;;23.03;32.34
51829;BME280;37881;48.024;8.774;2023-04-07T08:09:18;93606.78;;;20.68;34.81
51829;BME280;37881;48.024;8.774;2023-04-07T08:11:57;93597.47;;;23.73;30.22
51829;BME280;37881;48.024;8.774;2023-04-07T08:14:24;93600.00;;;25.80;27.94
51829;BME280;37881;48.024;8.774;2023-04-07T08:16:51;93601.41;;;26.28;26.66
51829;BME280;37881;48.024;8.774;2023-04-07T08:19:17;93604.50;;;18.62;35.77
51829;BME280;37881;48.024;8.774;2023-04-07T08:21:44;93600.50;;;19.97;34.19
51829;BME280;37881;48.024;8.774;2023-04-07T08:24:11;93595.91;;;17.45;37.84
51829;BME280;37881;48.024;8.774;2023-04-07T08:26:38;93598.81;;;17.08;39.09
51829;BME280;37881;48.024;8.774;2023-04-07T08:29:05;93611.22;;;15.21;42.99
51829;BME280;37881;48.024;8.774;2023-04-07T08:31:31;93603.66;;;15.12;44.49
51829;BME280;37881;48.024;8.774;2023-04-07T08:33:58;93606.34;;;12.87;52.12
51829;BME280;37881;48.024;8.774;2023-04-07T08:36:25;93615.28;;;11.37;60.64
51829;BME280;37881;48.024;8.774;2023-04-07T08:38:53;93603.97;;;12.30;57.25
51829;BME280;37881;48.024;8.774;2023-04-07T08:41:29;93610.00;;;11.10;66.57
51829;BME280;37881;48.024;8.774;2023-04-07T08:43:59;93608.84;;;12.10;62.13
51829;BME280;37881;48.024;8.774;2023-04-07T08:46:27;93612.19;;;12.01;61.27
51829;BME280;37881;48.024;8.774;2023-04-07T08:48:56;93615.75;;;10.99;65.76
51829;BME280;37881;48.024;8.774;2023-04-07T08:51:27;93615.78;;;11.32;66.13
51829;BME280;37881;48.024;8.774;2023-04-07T08:54:15;93618.41;;;10.23;71.61
51829;BME280;37881;48.024;8.774;2023-04-07T08:56:44;93608.56;;;11.22;69.73
51829;BME280;37881;48.024;8.774;2023-04-07T08:59:13;93610.94;;;11.89;65.37
51829;BME280;37881;48.024;8.774;2023-04-07T09:01:40;93611.84;;;12.15;64.13
51829;BME280;37881;48.024;8.774;2023-04-07T09:04:08;93617.84;;;11.28;66.21
51829;BME280;37881;48.024;8.774;2023-04-07T09:06:36;93610.88;;;12.22;63.19
51829;BME280;37881;48.024;8.774;2023-04-07T09:09:03;93618.09;;;10.81;67.52
51829;BME280;37881;48.024;8.774;2023-04-07T09:11:35;93620.63;;;10.32;72.44
51829;BME280;37881;48.024;8.774;2023-04-07T09:14:02;93620.88;;;11.34;68.55
51829;BME280;37881;48.024;8.774;2023-04-07T09:16:29;93619.13;;;12.22;66.15
51829;BME280;37881;48.024;8.774;2023-04-07T09:18:59;93627.06;;;11.38;66.69
51829;BME280;37881;48.024;8.774;2023-04-07T09:21:26;93624.88;;;11.13;70.27
51829;BME280;37881;48.024;8.774;2023-04-07T09:24:28;93620.53;;;11.81;66.19
51829;BME280;37881;48.024;8.774;2023-04-07T09:27:17;93621.47;;;11.42;66.10
51829;BME280;37881;48.024;8.774;2023-04-07T09:29:46;93627.47;;;10.20;72.80
51829;BME280;37881;48.024;8.774;2023-04-07T09:32:34;93623.59;;;11.34;68.54
51829;BME280;37881;48.024;8.774;2023-04-07T09:35:04;93626.69;;;11.19;67.78
51829;BME280;37881;48.024;8.774;2023-04-07T09:37:31;93628.88;;;11.61;65.51
51829;BME280;37881;48.024;8.774;2023-04-07T09:39:59;93618.66;;;11.62;65.82
51829;BME280;37881;48.024;8.774;2023-04-07T09:42:27;93623.53;;;12.19;63.25
51829;BME280;37881;48.024;8.774;2023-04-07T09:44:58;93623.03;;;12.67;59.64
51829;BME280;37881;48.024;8.774;2023-04-07T09:47:30;93611.59;;;13.49;56.42
51829;BME280;37881;48.024;8.774;2023-04-07T09:49:58;93612.44;;;13.84;54.57
51829;BME280;37881;48.024;8.774;2023-04-07T09:52:48;93614.47;;;15.60;49.03
51829;BME280;37881;48.024;8.774;2023-04-07T09:55:18;93608.84;;;15.73;48.53
51829;BME280;37881;48.024;8.774;2023-04-07T09:57:48;93610.56;;;15.80;46.97
51829;BME280;37881;48.024;8.774;2023-04-07T10:00:15;93611.53;;;15.54;47.56
51829;BME280;37881;48.024;8.774;2023-04-07T10:02:43;93618.66;;;14.23;49.74
51829;BME280;37881;48.024;8.774;2023-04-07T10:05:10;93613.94;;;13.98;50.50
51829;BME280;37881;48.024;8.774;2023-04-07T10:07:37;93606.19;;;13.58;50.64
51829;BME280;37881;48.024;8.774;2023-04-07T10:10:07;93613.38;;;13.43;52.57
51829;BME280;37881;48.024;8.774;2023-04-07T10:12:37;93608.19;;;13.70;52.29
51829;BME280;37881;48.024;8.774;2023-04-07T10:15:05;93604.88;;;13.63;52.31
51829;BME280;37881;48.024;8.774;2023-04-07T10:17:32;93616.94;;;12.88;54.85
51829;BME280;37881;48.024;8.774;2023-04-07T10:20:00;93613.16;;;12.82;55.58
51829;BME280;37881;48.024;8.774;2023-04-07T10:22:28;93613.44;;;12.29;57.67
51829;BME280;37881;48.024;8.774;2023-04-07T10:24:59;93616.97;;;12.30;57.19
51829;BME280;37881;48.024;8.774;2023-04-07T10:27:35;93612.31;;;12.27;58.54
51829;BME280;37881;48.024;8.774;2023-04-07T10:30:05;93625.94;;;11.52;60.57
51829;BME280;37881;48.024;8.774;2023-04-07T10:32:50;93622.66;;;11.24;63.45
51829;BME280;37881;48.024;8.774;2023-04-07T10:35:18;93623.34;;;10.92;65.75
51829;BME280;37881;48.024;8.774;2023-04-07T10:38:11;93621.81;;;10.91;66.91
51829;BME280;37881;48.024;8.774;2023-04-07T10:40:43;93622.66;;;10.88;68.87
51829;BME280;37881;48.024;8.774;2023-04-07T10:43:10;93622.91;;;10.77;72.58
51829;BME280;37881;48.024;8.774;2023-04-07T10:48:19;93626.66;;;9.29;83.78
51829;BME280;37881;48.024;8.774;2023-04-07T10:53:33;93638.66;;;8.80;90.78
51829;BME280;37881;48.024;8.774;2023-04-07T10:56:03;93636.09;;;8.97;91.85
51829;BME280;37881;48.024;8.774;2023-04-07T10:58:31;93630.63;;;8.97;100.00
51829;BME280;37881;48.024;8.774;2023-04-07T11:03:27;93640.41;;;9.25;100.00
51829;BME280;37881;48.024;8.774;2023-04-07T11:06:07;93637.91;;;9.34;100.00
51829;BME280;37881;48.024;8.774;2023-04-07T11:08:53;93633.53;;;9.13;100.00
51829;BME280;37881;48.024;8.774;2023-04-07T11:11:34;93634.19;;;8.94;100.00
51829;BME280;37881;48.024;8.774;2023-04-07T11:14:03;93630.41;;;8.53;100.00
51829;BME280;37881;48.024;8.774;2023-04-07T11:16:37;93630.38;;;8.88;100.00
51829;BME280;37881;48.024;8.774;2023-04-07T11:19:05;93632.78;;;8.82;100.00
51829;BME280;37881;48.024;8.774;2023-04-07T11:21:32;93637.69;;;8.67;100.00
51829;BME280;37881;48.024;8.774;2023-04-07T11:23:59;93628.91;;;8.79;100.00
51829;BME280;37881;48.024;8.774;2023-04-07T11:26:26;93634.09;;;8.70;100.00
51829;BME280;37881;48.024;8.774;2023-04-07T11:28:54;93633.88;;;8.57;100.00
51829;BME280;37881;48.024;8.774;2023-04-07T11:31:25;93633.28;;;8.39;100.00
51829;BME280;37881;48.024;8.774;2023-04-07T11:33:53;93637.78;;;8.56;100.00
51829;BME280;37881;48.024;8.774;2023-04-07T11:36:31;93635.81;;;8.57;100.00
51829;BME280;37881;48.024;8.774;2023-04-07T11:38:59;93648.34;;;8.58;100.00
51829;BME280;37881;48.024;8.774;2023-04-07T11:41:28;93647.66;;;8.09;100.00
51829;BME280;37881;48.024;8.774;2023-04-07T11:44:12;93648.72;;;8.18;100.00
51829;BME280;37881;48.024;8.774;2023-04-07T11:46:52;93652.25;;;8.19;100.00
51829;BME280;37881;48.024;8.774;2023-04-07T11:49:20;93654.25;;;8.53;100.00
51829;BME280;37881;48.024;8.774;2023-04-07T11:51:57;93659.44;;;8.40;100.00
51829;BME280;37881;48.024;8.774;2023-04-07T11:54:23;93664.22;;;8.32;100.00
51829;BME280;37881;48.024;8.774;2023-04-07T11:56:50;93659.22;;;8.24;100.00
51829;BME280;37881;48.024;8.774;2023-04-07T11:59:24;93671.97;;;7.99;100.00
51829;BME280;37881;48.024;8.774;2023-04-07T12:01:51;93689.78;;;7.70;100.00
51829;BME280;37881;48.024;8.774;2023-04-07T12:04:22;93682.41;;;8.08;100.00
51829;BME280;37881;48.024;8.774;2023-04-07T12:06:49;93686.13;;;8.29;100.00
51829;BME280;37881;48.024;8.774;2023-04-07T12:09:30;93689.19;;;8.34;100.00
51829;BME280;37881;48.024;8.774;2023-04-07T12:11:57;93702.50;;;8.32;100.00
51829;BME280;37881;48.024;8.774;2023-04-07T12:14:25;93716.44;;;7.51;100.00
51829;BME280;37881;48.024;8.774;2023-04-07T12:16:54;93709.97;;;6.43;100.00
51829;BME280;37881;48.024;8.774;2023-04-07T12:19:26;93711.94;;;6.28;100.00
51829;BME280;37881;48.024;8.774;2023-04-07T12:21:58;93707.66;;;6.23;100.00
51829;BME280;37881;48.024;8.774;2023-04-07T12:24:24;93717.81;;;6.05;100.00
51829;BME280;37881;48.024;8.774;2023-04-07T12:26:51;93716.28;;;6.00;100.00
51829;BME280;37881;48.024;8.774;2023-04-07T12:29:18;93718.97;;;6.14;100.00
51829;BME280;37881;48.024;8.774;2023-04-07T12:31:46;93720.09;;;6.28;100.00
51829;BME280;37881;48.024;8.774;2023-04-07T12:34:16;93725.16;;;6.26;100.00
51829;BME280;37881;48.024;8.774;2023-04-07T12:36:43;93723.22;;;6.37;100.00
51829;BME280;37881;48.024;8.774;2023-04-07T12:39:10;93726.31;;;6.35;100.00
51829;BME280;37881;48.024;8.774;2023-04-07T12:41:37;93733.38;;;6.00;100.00
51829;BME280;37881;48.024;8.774;2023-04-07T12:44:04;93729.44;;;6.37;100.00
51829;BME280;37881;48.024;8.774;2023-04-07T12:46:31;93730.53;;;6.65;100.00
51829;BME280;37881;48.024;8.774;2023-04-07T12:48:58;93730.53;;;6.65;100.00
51829;BME280;37881;48.024;8.774;2023-04-07T12:51:25;93733.59;;;6.82;100.00
51829;BME280;37881;48.024;8.774;2023-04-07T12:53:52;93742.19;;;6.76;100.00
51829;BME280;37881;48.024;8.774;2023-04-07T12:56:19;93749.13;;;6.92;100.00
51829;BME280;37881;48.024;8.774;2023-04-07T12:58:49;93743.72;;;6.81;100.00
51829;BME280;37881;48.024;8.774;2023-04-07T13:01:16;93752.03;;;6.24;100.00
51829;BME280;37881;48.024;8.774;2023-04-07T13:03:43;93758.28;;;5.88;100.00
51829;BME280;37881;48.024;8.774;2023-04-07T13:06:10;93758.56;;;5.18;100.00
51829;BME280;37881;48.024;8.774;2023-04-07T13:08:38;93765.28;;;5.86;100.00
51829;BME280;37881;48.024;8.774;2023-04-07T13:11:06;93758.69;;;6.01;100.00
51829;BME280;37881;48.024;8.774;2023-04-07T13:13:33;93762.91;;;6.49;100.00
51829;BME280;37881;48.024;8.774;2023-04-07T13:15:59;93758.59;;;6.62;100.00
51829;BME280;37881;48.024;8.774;2023-04-07T13:18:26;93772.56;;;6.75;100.00
51829;BME280;37881;48.024;8.774;2023-04-07T13:20:53;93769.81;;;6.86;100.00